createdAt,value
2023-02-12T00:01:11.641Z,100.30
2023-02-12T00:03:40.314Z,100.53
2023-02-12T00:06:09.534Z,99.90
2023-02-12T00:08:37.871Z,92.43
2023-02-12T00:11:12.401Z,86.63
2023-02-12T00:13:40.278Z,83.50
2023-02-12T00:16:10.082Z,86.40
2023-02-12T00:18:37.639Z,90.15
2023-02-12T00:21:06.130Z,84.40
2023-02-12T00:23:33.572Z,83.72
2023-02-12T00:26:01.163Z,85.90
2023-02-12T00:28:28.640Z,79.47
2023-02-12T00:30:56.154Z,86.57
2023-02-12T00:33:23.568Z,79.47
2023-02-12T00:35:59.963Z,86.20
2023-02-12T00:38:27.659Z,83.20
2023-02-12T00:40:55.126Z,87.25
2023-02-12T00:43:22.579Z,81.95
2023-02-12T00:45:50.001Z,87.63
2023-02-12T00:48:17.735Z,80.90
2023-02-12T00:50:46.921Z,81.78
2023-02-12T00:53:15.058Z,86.53
2023-02-12T00:55:42.746Z,81.60
2023-02-12T00:58:10.561Z,81.20
2023-02-12T01:00:38.075Z,82.35
2023-02-12T01:03:06.122Z,80.93
2023-02-12T01:05:33.717Z,68.93
2023-02-12T01:08:01.149Z,79.28
2023-02-12T01:10:28.941Z,76.88
2023-02-12T01:12:56.773Z,90.75
2023-02-12T01:15:24.270Z,80.68
2023-02-12T01:17:53.366Z,77.60
2023-02-12T01:20:23.472Z,83.72
2023-02-12T01:22:51.465Z,81.28
2023-02-12T01:25:20.656Z,85.97
2023-02-12T01:27:48.446Z,79.20
2023-02-12T01:30:16.632Z,84.35
2023-02-12T01:32:44.461Z,85.60
2023-02-12T01:35:11.937Z,76.55
2023-02-12T01:37:41.589Z,79.63
2023-02-12T01:40:10.294Z,83.15
2023-02-12T01:42:37.715Z,83.15
2023-02-12T01:45:14.307Z,74.53
2023-02-12T01:47:44.629Z,84.85
2023-02-12T01:50:17.454Z,84.20
2023-02-12T01:52:49.814Z,73.47
2023-02-12T01:55:19.211Z,81.22
2023-02-12T01:57:48.236Z,81.90
2023-02-12T02:00:20.979Z,77.40
2023-02-12T02:02:54.019Z,85.95
2023-02-12T02:05:43.414Z,82.63
2023-02-12T02:08:12.501Z,87.45
2023-02-12T02:10:40.071Z,80.40
2023-02-12T02:13:27.045Z,85.55
2023-02-12T02:15:59.951Z,96.05
2023-02-12T02:18:38.771Z,95.18
2023-02-12T02:21:09.359Z,83.93
2023-02-12T02:24:21.270Z,81.85
2023-02-12T02:27:10.365Z,88.50
2023-02-12T02:30:08.206Z,82.78
2023-02-12T02:32:53.822Z,95.32
2023-02-12T02:35:57.826Z,102.30
2023-02-12T02:38:40.847Z,102.28
2023-02-12T02:41:25.822Z,104.18
2023-02-12T02:43:53.432Z,113.70
2023-02-12T02:46:25.225Z,115.18
2023-02-12T02:51:33.315Z,109.57
2023-02-12T02:54:07.648Z,114.40
2023-02-12T02:56:39.228Z,139.38
2023-02-12T02:59:12.842Z,115.28
2023-02-12T03:01:48.082Z,113.93
2023-02-12T03:04:26.531Z,116.55
2023-02-12T03:06:56.248Z,108.35
2023-02-12T03:09:29.280Z,100.15
2023-02-12T03:12:01.656Z,97.07
2023-02-12T03:14:40.905Z,112.43
2023-02-12T03:17:20.530Z,105.95
2023-02-12T03:19:57.098Z,114.50
2023-02-12T03:22:37.714Z,120.10
2023-02-12T03:25:14.362Z,113.68
2023-02-12T03:27:47.368Z,114.40
2023-02-12T03:30:15.343Z,106.10
2023-02-12T03:32:57.482Z,113.72
2023-02-12T03:35:35.670Z,120.18
2023-02-12T03:38:07.317Z,106.10
2023-02-12T03:40:41.212Z,120.95
2023-02-12T03:43:23.968Z,122.90
2023-02-12T03:45:57.251Z,123.20
2023-02-12T03:48:32.704Z,107.63
2023-02-12T03:51:04.418Z,117.25
2023-02-12T03:53:32.560Z,103.82
2023-02-12T03:56:11.010Z,113.22
2023-02-12T03:58:41.195Z,120.13
2023-02-12T04:01:08.962Z,114.50
2023-02-12T04:03:36.699Z,106.43
2023-02-12T04:06:04.454Z,114.60
2023-02-12T04:08:32.691Z,112.68
2023-02-12T04:11:06.115Z,118.82
2023-02-12T04:14:02.639Z,106.40
2023-02-12T04:16:40.862Z,107.90
2023-02-12T04:19:13.087Z,119.28
2023-02-12T04:22:08.490Z,115.65
2023-02-12T04:24:55.742Z,107.97
2023-02-12T04:27:35.608Z,102.25
2023-02-12T04:30:18.219Z,110.45
2023-02-12T04:32:51.909Z,98.82
2023-02-12T04:35:25.732Z,105.50
2023-02-12T04:38:30.881Z,110.80
2023-02-12T04:40:59.096Z,110.22
2023-02-12T04:43:36.665Z,105.32
2023-02-12T04:46:06.054Z,98.53
2023-02-12T04:48:34.670Z,105.55
2023-02-12T04:51:02.539Z,105.97
2023-02-12T04:53:29.991Z,101.50
2023-02-12T04:55:57.776Z,92.88
2023-02-12T04:58:25.357Z,97.78
2023-02-12T05:00:52.796Z,89.47
2023-02-12T05:03:20.412Z,103.00
2023-02-12T05:05:47.849Z,101.65
2023-02-12T05:08:15.317Z,102.20
2023-02-12T05:10:42.805Z,101.18
2023-02-12T05:13:10.931Z,102.18
2023-02-12T05:15:41.565Z,106.35
2023-02-12T05:18:09.159Z,110.63
2023-02-12T05:20:36.546Z,114.32
2023-02-12T05:23:03.919Z,101.90
2023-02-12T05:25:32.053Z,94.50
2023-02-12T05:28:00.162Z,96.65
2023-02-12T05:30:27.838Z,94.60
2023-02-12T05:32:55.315Z,98.20
2023-02-12T05:35:22.717Z,95.43
2023-02-12T05:37:50.143Z,99.50
2023-02-12T05:40:17.960Z,99.78
2023-02-12T05:42:45.522Z,90.60
2023-02-12T05:45:12.905Z,97.25
2023-02-12T05:47:40.360Z,99.45
2023-02-12T05:50:08.360Z,87.22
2023-02-12T05:52:35.843Z,93.22
2023-02-12T05:55:03.661Z,95.85
2023-02-12T05:57:31.098Z,92.55
2023-02-12T05:59:58.578Z,96.57
2023-02-12T06:02:26.237Z,94.45
2023-02-12T06:04:53.838Z,86.82
2023-02-12T06:07:21.559Z,92.00
2023-02-12T06:09:49.050Z,84.65
2023-02-12T06:12:16.731Z,95.22
2023-02-12T06:14:44.275Z,89.20
2023-02-12T06:17:11.648Z,83.95
2023-02-12T06:19:39.145Z,84.78
2023-02-12T06:22:06.746Z,92.05
2023-02-12T06:24:34.269Z,87.03
2023-02-12T06:27:01.777Z,89.45
2023-02-12T06:29:29.359Z,88.07
2023-02-12T06:31:56.901Z,79.72
2023-02-12T06:34:24.497Z,90.72
2023-02-12T06:36:52.049Z,82.43
2023-02-12T06:39:19.573Z,78.78
2023-02-12T06:41:47.026Z,86.32
2023-02-12T06:44:14.632Z,80.75
2023-02-12T06:46:42.394Z,75.90
2023-02-12T06:49:12.760Z,77.00
2023-02-12T06:51:41.522Z,78.35
2023-02-12T06:54:16.283Z,92.78
2023-02-12T06:56:44.407Z,86.32
2023-02-12T06:59:18.127Z,92.97
2023-02-12T07:01:45.618Z,81.07
2023-02-12T07:04:13.688Z,87.97
2023-02-12T07:06:41.405Z,83.57
2023-02-12T07:09:08.864Z,88.15
2023-02-12T07:11:38.511Z,83.85
2023-02-12T07:14:07.357Z,94.25
2023-02-12T07:16:35.125Z,95.43
2023-02-12T07:19:02.766Z,97.60
2023-02-12T07:21:30.854Z,94.20
2023-02-12T07:23:58.366Z,94.63
2023-02-12T07:26:25.794Z,93.13
2023-02-12T07:28:53.256Z,94.55
2023-02-12T07:31:23.515Z,108.18
2023-02-12T07:33:55.769Z,93.47
2023-02-12T07:36:24.146Z,89.90
2023-02-12T07:38:51.757Z,93.32
2023-02-12T07:41:22.816Z,86.85
2023-02-12T07:43:54.758Z,85.50
2023-02-12T07:48:52.369Z,98.88
2023-02-12T07:51:19.788Z,87.85
2023-02-12T07:53:47.882Z,85.93
2023-02-12T07:56:19.168Z,83.55
2023-02-12T07:58:48.043Z,77.03
2023-02-12T08:01:27.503Z,82.00
2023-02-12T08:04:00.532Z,70.68
2023-02-12T08:06:32.024Z,68.95
2023-02-12T08:09:02.293Z,71.40
2023-02-12T08:11:30.484Z,63.45
2023-02-12T08:13:58.595Z,69.13
2023-02-12T08:16:28.277Z,74.78
2023-02-12T08:19:02.405Z,65.82
2023-02-12T08:21:35.300Z,69.03
2023-02-12T08:24:02.835Z,68.00
2023-02-12T08:26:36.499Z,71.10
2023-02-12T08:29:09.995Z,77.97
2023-02-12T08:31:40.356Z,75.70
2023-02-12T08:34:15.377Z,70.35
2023-02-12T08:36:44.276Z,72.75
2023-02-12T08:39:12.793Z,69.63
2023-02-12T08:41:42.377Z,80.78
2023-02-12T08:44:11.326Z,68.03
2023-02-12T08:46:43.071Z,75.40
2023-02-12T08:49:15.553Z,68.20
2023-02-12T08:51:45.898Z,75.90
2023-02-12T08:54:15.864Z,72.22
2023-02-12T08:56:47.383Z,66.32
2023-02-12T08:59:16.046Z,65.65
2023-02-12T09:01:44.817Z,60.42
2023-02-12T09:04:18.139Z,60.00
2023-02-12T09:06:46.485Z,56.72
2023-02-12T09:09:14.794Z,61.53
2023-02-12T09:11:42.735Z,71.53
2023-02-12T09:14:13.522Z,72.38
2023-02-12T09:16:41.566Z,62.25
2023-02-12T09:19:12.092Z,61.47
2023-02-12T09:21:39.530Z,63.35
2023-02-12T09:24:07.693Z,60.90
2023-02-12T09:26:35.469Z,65.13
2023-02-12T09:29:04.440Z,64.35
2023-02-12T09:31:33.587Z,60.67
2023-02-12T09:34:04.030Z,63.67
2023-02-12T09:36:32.294Z,62.58
2023-02-12T09:39:00.513Z,60.55
2023-02-12T09:41:52.517Z,70.50
2023-02-12T09:44:34.850Z,60.10
2023-02-12T09:47:25.400Z,58.70
2023-02-12T09:50:30.382Z,71.45
2023-02-12T09:52:59.251Z,63.10
2023-02-12T09:55:32.922Z,72.20
2023-02-12T09:58:05.448Z,69.07
2023-02-12T10:00:33.015Z,73.53
2023-02-12T10:03:10.854Z,66.65
2023-02-12T10:05:45.119Z,67.05
2023-02-12T10:08:23.941Z,62.33
2023-02-12T10:10:59.760Z,59.83
2023-02-12T10:13:48.786Z,58.10
2023-02-12T10:16:38.540Z,60.47
2023-02-12T10:19:28.729Z,55.53
2023-02-12T10:22:17.383Z,59.42
2023-02-12T10:25:03.338Z,59.70
2023-02-12T10:27:41.634Z,59.17
2023-02-12T10:30:21.697Z,64.65
2023-02-12T10:32:54.145Z,63.45
2023-02-12T10:35:23.713Z,62.75
2023-02-12T10:38:16.446Z,66.72
2023-02-12T10:40:45.301Z,61.15
2023-02-12T10:43:13.932Z,75.40
2023-02-12T10:45:43.812Z,65.75
2023-02-12T10:48:22.318Z,68.85
2023-02-12T10:51:04.551Z,67.05
2023-02-12T10:53:44.751Z,75.47
2023-02-12T10:56:14.814Z,69.18
2023-02-12T10:58:50.439Z,71.05
2023-02-12T11:01:20.523Z,64.40
2023-02-12T11:03:48.503Z,71.05
2023-02-12T11:06:18.892Z,59.75
2023-02-12T11:08:46.670Z,64.35
2023-02-12T11:11:15.979Z,61.03
2023-02-12T11:13:54.640Z,68.30
2023-02-12T11:16:30.814Z,61.83
2023-02-12T11:19:07.113Z,57.47
2023-02-12T11:21:36.432Z,56.70
2023-02-12T11:24:36.153Z,60.63
2023-02-12T11:27:16.933Z,64.20
2023-02-12T11:29:49.045Z,63.13
2023-02-12T11:32:18.949Z,63.10
2023-02-12T11:35:14.976Z,67.97
2023-02-12T11:37:44.646Z,64.72
2023-02-12T11:40:28.175Z,63.83
2023-02-12T11:43:05.953Z,71.50
2023-02-12T11:45:44.877Z,75.25
2023-02-12T11:48:22.613Z,72.32
2023-02-12T11:50:54.224Z,67.32
2023-02-12T11:53:34.567Z,64.50
2023-02-12T11:56:07.170Z,64.32
2023-02-12T11:58:34.711Z,63.97
2023-02-12T12:01:19.567Z,71.03
2023-02-12T12:04:03.346Z,57.47
2023-02-12T12:06:58.063Z,61.15
2023-02-12T12:09:29.147Z,57.75
2023-02-12T12:12:08.046Z,62.97
2023-02-12T12:14:57.718Z,67.78
2023-02-12T12:18:15.586Z,66.05
2023-02-12T12:21:17.390Z,54.60
2023-02-12T12:23:55.037Z,54.63
2023-02-12T12:26:31.342Z,57.60
2023-02-12T12:29:10.643Z,57.03
2023-02-12T12:31:42.119Z,63.22
2023-02-12T12:34:14.165Z,63.40
2023-02-12T12:37:11.980Z,68.13
2023-02-12T12:40:03.619Z,59.42
2023-02-12T12:42:49.110Z,67.03
2023-02-12T12:45:47.669Z,63.10
2023-02-12T12:48:18.204Z,67.70
2023-02-12T12:51:27.039Z,64.82
2023-02-12T12:54:07.477Z,63.67
2023-02-12T12:57:17.365Z,67.00
2023-02-12T13:00:12.873Z,71.13
2023-02-12T13:03:10.949Z,78.43
2023-02-12T13:05:53.445Z,64.47
2023-02-12T13:10:57.523Z,71.30
2023-02-12T13:13:32.957Z,73.10
2023-02-12T13:16:03.378Z,58.63
2023-02-12T13:18:51.574Z,54.15
2023-02-12T13:21:28.649Z,51.38
2023-02-12T13:24:14.897Z,44.92
2023-02-12T13:27:22.062Z,53.33
2023-02-12T13:30:06.547Z,29.45
2023-02-12T13:32:40.690Z,25.55
2023-02-12T13:35:14.390Z,25.92
2023-02-12T13:37:45.686Z,25.45
2023-02-12T13:40:20.487Z,29.55
2023-02-12T13:43:00.029Z,27.38
2023-02-12T13:45:33.841Z,27.35
2023-02-12T13:48:01.241Z,27.33
2023-02-12T13:50:34.757Z,24.33
2023-02-12T13:53:30.180Z,27.95
2023-02-12T13:56:02.073Z,22.23
2023-02-12T13:58:32.751Z,31.67
2023-02-12T14:01:02.787Z,23.63
2023-02-12T14:03:31.750Z,28.58
2023-02-12T14:06:20.271Z,28.30
2023-02-12T14:08:51.834Z,28.73
2023-02-12T14:11:22.310Z,26.23
2023-02-12T14:14:01.479Z,28.33
2023-02-12T14:16:31.698Z,23.42
2023-02-12T14:19:36.346Z,25.67
2023-02-12T14:22:30.906Z,25.73
2023-02-12T14:25:00.345Z,28.45
2023-02-12T14:27:36.044Z,35.72
2023-02-12T14:30:28.337Z,29.35
2023-02-12T14:33:00.575Z,38.78
2023-02-12T14:37:58.266Z,31.13
2023-02-12T14:40:34.726Z,29.67
2023-02-12T14:43:24.652Z,36.92
2023-02-12T14:45:52.510Z,31.85
2023-02-12T14:48:51.592Z,30.27
2023-02-12T14:51:21.740Z,37.90
2023-02-12T14:53:51.512Z,26.17
2023-02-12T14:56:22.285Z,34.30
2023-02-12T14:58:52.960Z,35.97
2023-02-12T15:01:34.042Z,32.20
2023-02-12T15:04:16.829Z,38.55
2023-02-12T15:06:53.610Z,40.65
2023-02-12T15:09:50.574Z,30.10
2023-02-12T15:12:26.642Z,33.42
2023-02-12T15:15:10.452Z,33.15
2023-02-12T15:17:40.881Z,37.13
2023-02-12T15:20:21.274Z,33.45
2023-02-12T15:22:48.739Z,32.70
2023-02-12T15:25:28.423Z,33.58
2023-02-12T15:28:21.654Z,34.35
2023-02-12T15:30:50.495Z,33.97
2023-02-12T15:33:27.881Z,37.05
2023-02-12T15:35:59.771Z,51.65
2023-02-12T15:38:43.715Z,35.38
2023-02-12T15:41:34.079Z,33.85
2023-02-12T15:44:22.201Z,37.30
2023-02-12T15:47:08.653Z,35.55
2023-02-12T15:49:38.301Z,40.05
2023-02-12T15:52:19.055Z,37.35
2023-02-12T15:54:47.467Z,35.08
2023-02-12T15:57:22.085Z,30.58
2023-02-12T16:00:02.146Z,37.15
2023-02-12T16:02:33.086Z,33.53
2023-02-12T16:05:04.270Z,37.88
2023-02-12T16:07:36.963Z,33.70
2023-02-12T16:10:06.274Z,32.88
2023-02-12T16:12:37.657Z,31.58
2023-02-12T16:15:05.857Z,33.07
2023-02-12T16:17:36.570Z,30.35
2023-02-12T16:20:08.901Z,30.35
2023-02-12T16:25:21.235Z,29.98
2023-02-12T16:27:59.214Z,33.22
2023-02-12T16:30:28.314Z,31.67
2023-02-12T16:32:56.645Z,35.03
2023-02-12T16:35:35.668Z,34.22
2023-02-12T16:38:35.294Z,32.55
2023-02-12T16:41:14.514Z,43.00
2023-02-12T16:43:41.976Z,34.85
2023-02-12T16:46:09.671Z,30.75
2023-02-12T16:48:49.505Z,30.63
2023-02-12T16:51:33.351Z,35.97
2023-02-12T16:54:03.393Z,30.23
2023-02-12T16:56:38.756Z,31.20
2023-02-12T16:59:06.248Z,33.63
2023-02-12T17:01:36.162Z,32.47
2023-02-12T17:04:09.175Z,34.00
2023-02-12T17:06:36.636Z,31.23
2023-02-12T17:09:04.085Z,31.67
2023-02-12T17:11:31.566Z,32.63
2023-02-12T17:13:59.029Z,33.05
2023-02-12T17:16:31.237Z,29.17
2023-02-12T17:19:00.492Z,32.53
2023-02-12T17:21:31.705Z,36.83
2023-02-12T17:23:59.324Z,31.88
2023-02-12T17:26:26.903Z,32.17
2023-02-12T17:28:54.374Z,37.85
2023-02-12T17:31:23.940Z,33.53
2023-02-12T17:33:51.561Z,31.70
2023-02-12T17:36:19.114Z,31.63
2023-02-12T17:38:46.560Z,35.38
2023-02-12T17:41:14.062Z,37.67
2023-02-12T17:43:41.494Z,27.52
2023-02-12T17:46:14.417Z,30.10
2023-02-12T17:48:41.955Z,30.02
2023-02-12T17:51:11.656Z,30.05
2023-02-12T17:53:40.227Z,30.80
2023-02-12T17:56:17.210Z,29.90
2023-02-12T17:58:44.752Z,27.85
2023-02-12T18:01:15.557Z,26.40
2023-02-12T18:03:43.060Z,27.73
2023-02-12T18:06:14.073Z,27.90
2023-02-12T18:08:42.469Z,27.27
2023-02-12T18:11:11.174Z,26.88
2023-02-12T18:13:39.486Z,27.92
2023-02-12T18:16:09.118Z,27.73
2023-02-12T18:18:37.969Z,34.45
2023-02-12T18:21:13.722Z,30.67
2023-02-12T18:23:41.698Z,28.80
2023-02-12T18:26:15.059Z,26.45
2023-02-12T18:28:42.981Z,28.27
2023-02-12T18:31:11.308Z,29.35
2023-02-12T18:33:39.309Z,27.52
2023-02-12T18:36:09.870Z,26.55
2023-02-12T18:38:39.409Z,24.73
2023-02-12T18:41:09.076Z,26.38
2023-02-12T18:43:37.199Z,26.33
2023-02-12T18:46:12.349Z,27.05
2023-02-12T18:48:40.176Z,25.20
2023-02-12T18:51:09.201Z,26.73
2023-02-12T18:53:37.131Z,21.88
2023-02-12T18:56:06.998Z,27.33
2023-02-12T18:58:35.085Z,23.77
2023-02-12T19:01:11.939Z,21.40
2023-02-12T19:03:39.503Z,21.92
2023-02-12T19:06:07.173Z,22.45
2023-02-12T19:08:34.668Z,26.75
2023-02-12T19:11:02.140Z,24.02
2023-02-12T19:13:29.573Z,22.73
2023-02-12T19:15:57.222Z,21.05
2023-02-12T19:18:24.783Z,22.05
2023-02-12T19:20:52.217Z,25.77
2023-02-12T19:23:19.821Z,22.33
2023-02-12T19:25:47.241Z,24.80
2023-02-12T19:28:14.731Z,24.33
2023-02-12T19:30:42.220Z,23.20
2023-02-12T19:33:09.757Z,22.73
2023-02-12T19:35:37.170Z,20.35
2023-02-12T19:38:04.572Z,19.42
2023-02-12T19:40:32.271Z,28.65
2023-02-12T19:42:59.657Z,22.35
2023-02-12T19:45:27.148Z,21.80
2023-02-12T19:47:54.681Z,24.83
2023-02-12T19:50:22.085Z,24.77
2023-02-12T19:52:49.545Z,20.25
2023-02-12T19:55:17.043Z,19.48
2023-02-12T19:57:44.777Z,21.38
2023-02-12T20:00:13.038Z,20.38
2023-02-12T20:02:43.552Z,23.17
2023-02-12T20:05:11.358Z,19.67
2023-02-12T20:07:38.860Z,23.58
2023-02-12T20:10:07.002Z,24.63
2023-02-12T20:12:36.253Z,22.98
2023-02-12T20:15:04.336Z,26.63
2023-02-12T20:17:31.848Z,28.27
2023-02-12T20:19:59.346Z,37.65
2023-02-12T20:22:26.808Z,26.77
2023-02-12T20:24:54.344Z,30.35
2023-02-12T20:27:21.785Z,26.73
2023-02-12T20:29:49.301Z,21.30
2023-02-12T20:32:16.718Z,22.05
2023-02-12T20:34:50.899Z,26.45
2023-02-12T20:37:19.259Z,24.60
2023-02-12T20:39:46.794Z,26.95
2023-02-12T20:42:14.276Z,26.85
2023-02-12T20:44:41.758Z,24.92
2023-02-12T20:47:09.255Z,28.00
2023-02-12T20:49:36.901Z,25.38
2023-02-12T20:52:04.627Z,27.30
2023-02-12T20:54:32.053Z,26.45
2023-02-12T20:56:59.542Z,29.35
2023-02-12T20:59:27.129Z,33.42
2023-02-12T21:01:54.729Z,36.45
2023-02-12T21:04:22.197Z,25.90
2023-02-12T21:06:49.905Z,25.52
2023-02-12T21:09:17.572Z,30.58
2023-02-12T21:11:45.952Z,34.38
2023-02-12T21:14:23.602Z,30.15
2023-02-12T21:16:55.745Z,28.50
2023-02-12T21:19:24.171Z,35.63
2023-02-12T21:21:51.849Z,35.97
2023-02-12T21:24:22.430Z,31.13
2023-02-12T21:26:51.361Z,27.92
2023-02-12T21:29:19.760Z,31.77
2023-02-12T21:31:48.963Z,31.00
2023-02-12T21:34:22.601Z,31.88
2023-02-12T21:36:52.445Z,28.00
2023-02-12T21:39:27.025Z,30.20
2023-02-12T21:41:57.742Z,33.95
2023-02-12T21:44:26.391Z,30.73
2023-02-12T21:46:54.130Z,27.25
2023-02-12T21:49:28.196Z,24.88
2023-02-12T21:51:59.257Z,30.08
2023-02-12T21:54:27.135Z,29.48
2023-02-12T21:56:55.565Z,33.35
2023-02-12T21:59:24.755Z,28.67
2023-02-12T22:01:55.450Z,30.42
2023-02-12T22:04:22.962Z,32.88
2023-02-12T22:06:52.676Z,30.45
2023-02-12T22:09:22.456Z,29.67
2023-02-12T22:11:52.333Z,25.40
2023-02-12T22:14:21.958Z,33.03
2023-02-12T22:16:50.162Z,27.83
2023-02-12T22:19:18.256Z,26.02
2023-02-12T22:21:45.922Z,25.67
2023-02-12T22:24:16.017Z,23.17
2023-02-12T22:26:44.669Z,28.23
2023-02-12T22:29:14.639Z,17.58
2023-02-12T22:31:43.593Z,21.45
2023-02-12T22:34:13.825Z,22.67
2023-02-12T22:36:42.055Z,19.60
2023-02-12T22:39:11.036Z,23.90
2023-02-12T22:41:38.706Z,22.08
2023-02-12T22:44:06.269Z,22.92
2023-02-12T22:46:35.266Z,27.23
2023-02-12T22:49:02.834Z,20.88
2023-02-12T22:51:32.109Z,18.15
2023-02-12T22:54:00.227Z,18.13
2023-02-12T22:56:27.701Z,21.38
2023-02-12T22:58:57.220Z,15.80
2023-02-12T23:01:25.109Z,17.92
2023-02-12T23:03:53.009Z,22.65
2023-02-12T23:06:23.447Z,17.23
2023-02-12T23:08:52.742Z,19.27
2023-02-12T23:11:20.727Z,20.60
2023-02-12T23:13:48.136Z,13.27
2023-02-12T23:16:15.616Z,14.98
2023-02-12T23:18:43.332Z,13.68
2023-02-12T23:21:10.954Z,13.52
2023-02-12T23:23:38.380Z,13.20
2023-02-12T23:26:06.154Z,20.23
2023-02-12T23:28:33.665Z,13.77
2023-02-12T23:31:01.640Z,14.65
2023-02-12T23:33:29.294Z,14.30
2023-02-12T23:35:56.834Z,14.50
2023-02-12T23:38:24.296Z,13.00
2023-02-12T23:40:51.918Z,13.60
2023-02-12T23:43:19.385Z,13.57
2023-02-12T23:45:47.194Z,14.38
2023-02-12T23:48:15.015Z,15.55
2023-02-12T23:50:42.556Z,13.23
2023-02-12T23:53:11.109Z,13.60
2023-02-12T23:55:39.950Z,12.80
2023-02-12T23:58:08.223Z,12.13
